Flight Briefing for CPX791

Departure Arrival
Changi International Airport (WSSS)
Click to view FAA NOTAMS
Kingsford Smith International Airport (YSSY)
Click to view FAA NOTAMS
Departure Time Arrival Time
N/A N/A
Aircraft Distance
MD-11SF 3402nm
Departure METAR Arrival METAR
WSSS 152030Z 01004KT 340V070 9999 FEW018 BKN300 26/23 Q1012 NOSIG YSSY 152030Z 31004KT 9999 FEW030 SCT300 21/14 Q1021 NOSIG
Suggested Route
ANIT7B ANITO/M082F310 B470 PKP/N0496F310 L511 RUPKA/N0492F330 L511 TARUN T20 BRM/N0488F350 G222 AGAGO/N0483F370 G222 PKS H319 TARAL Y59 RIVET


View recent IFR Routes data
Notes



Charts and Procedures

Charts for WSSS
No chart available
Charts for YSSY
No chart available

Ventusky Weather